createdAt,value
2018-09-25T00:01:44.126Z,94.50
2018-09-25T00:04:17.702Z,94.50
2018-09-25T00:06:51.477Z,94.38
2018-09-25T00:09:25.142Z,93.83
2018-09-25T00:11:58.604Z,94.55
2018-09-25T00:14:32.383Z,94.17
2018-09-25T00:17:06.208Z,94.40
2018-09-25T00:19:39.781Z,94.70
2018-09-25T00:22:13.371Z,94.92
2018-09-25T00:24:47.130Z,94.91
2018-09-25T00:27:20.891Z,94.67
2018-09-25T00:29:54.690Z,94.61
2018-09-25T00:32:28.174Z,95.42
2018-09-25T00:35:01.862Z,94.67
2018-09-25T00:37:35.730Z,94.41
2018-09-25T00:40:09.350Z,94.91
2018-09-25T00:42:43.012Z,94.85
2018-09-25T00:45:16.707Z,95.30
2018-09-25T00:47:50.423Z,94.68
2018-09-25T00:50:24.115Z,95.64
2018-09-25T00:52:57.755Z,95.31
2018-09-25T00:55:31.265Z,96.01
2018-09-25T00:58:05.030Z,95.30
2018-09-25T01:00:38.547Z,95.40
2018-09-25T01:03:12.331Z,95.09
2018-09-25T01:05:46.069Z,94.53
2018-09-25T01:08:19.825Z,94.92
2018-09-25T01:10:53.358Z,95.28
2018-09-25T01:13:26.859Z,94.58
2018-09-25T01:16:00.517Z,95.07
2018-09-25T01:18:34.070Z,95.91
2018-09-25T01:21:07.775Z,95.15
2018-09-25T01:23:41.318Z,95.72
2018-09-25T01:26:14.946Z,95.98
2018-09-25T01:28:48.849Z,95.64
2018-09-25T01:31:22.563Z,96.13
2018-09-25T01:33:56.148Z,96.30
2018-09-25T01:36:29.663Z,95.18
2018-09-25T01:39:03.273Z,95.88
2018-09-25T01:41:37.020Z,95.38
2018-09-25T01:44:10.457Z,95.81
2018-09-25T01:46:57.675Z,96.25
2018-09-25T01:49:31.435Z,95.73
2018-09-25T01:52:05.207Z,95.29
2018-09-25T01:54:38.990Z,96.25
2018-09-25T01:57:12.489Z,95.96
2018-09-25T01:59:46.459Z,96.00
2018-09-25T02:02:20.030Z,95.52
2018-09-25T02:04:53.883Z,96.04
2018-09-25T02:07:27.467Z,95.26
2018-09-25T02:10:01.002Z,95.97
2018-09-25T02:12:34.399Z,95.34
2018-09-25T02:15:07.871Z,96.21
2018-09-25T02:17:41.416Z,96.88
2018-09-25T02:20:15.126Z,96.32
2018-09-25T02:22:48.672Z,95.93
2018-09-25T02:25:22.247Z,96.61
2018-09-25T02:27:55.771Z,96.22
2018-09-25T02:30:29.231Z,96.54
2018-09-25T02:33:02.748Z,96.33
2018-09-25T02:35:36.653Z,96.52
2018-09-25T02:38:10.263Z,95.77
2018-09-25T02:40:43.865Z,96.70
2018-09-25T02:43:17.490Z,96.57
2018-09-25T02:45:51.197Z,96.88
2018-09-25T02:48:24.816Z,96.27
2018-09-25T02:50:58.354Z,95.62
2018-09-25T02:53:31.852Z,96.12
2018-09-25T02:56:05.495Z,96.29
2018-09-25T02:58:39.106Z,96.42
2018-09-25T03:01:12.833Z,96.76
2018-09-25T03:03:46.503Z,96.29
2018-09-25T03:06:20.233Z,96.51
2018-09-25T03:08:53.726Z,95.68
2018-09-25T03:11:27.374Z,96.40
2018-09-25T03:14:00.895Z,96.28
2018-09-25T03:16:34.630Z,95.94
2018-09-25T03:19:08.202Z,95.47
2018-09-25T03:21:41.889Z,96.55
2018-09-25T03:24:15.409Z,95.86
2018-09-25T03:26:49.130Z,95.29
2018-09-25T03:29:22.606Z,96.41
2018-09-25T03:31:56.051Z,95.84
2018-09-25T03:34:29.962Z,96.38
2018-09-25T03:37:03.559Z,96.47
2018-09-25T03:39:37.089Z,96.32
2018-09-25T03:42:11.211Z,96.04
2018-09-25T03:44:44.694Z,96.63
2018-09-25T03:47:18.262Z,97.13
2018-09-25T03:49:51.875Z,96.76
2018-09-25T03:52:25.623Z,97.41
2018-09-25T03:54:59.391Z,96.55
2018-09-25T03:57:33.117Z,96.66
2018-09-25T04:00:06.822Z,97.01
2018-09-25T04:02:40.589Z,96.16
2018-09-25T04:05:14.456Z,97.20
2018-09-25T04:07:47.991Z,96.40
2018-09-25T04:10:21.637Z,96.74
2018-09-25T04:12:55.414Z,96.90
2018-09-25T04:15:29.131Z,96.75
2018-09-25T04:18:02.935Z,96.16
2018-09-25T04:20:36.631Z,96.77
2018-09-25T04:23:10.082Z,96.37
2018-09-25T04:25:43.865Z,96.60
2018-09-25T04:28:17.425Z,96.43
2018-09-25T04:30:50.827Z,96.54
2018-09-25T04:33:24.534Z,97.07
2018-09-25T04:35:58.328Z,96.92
2018-09-25T04:38:31.967Z,96.26
2018-09-25T04:41:05.570Z,96.62
2018-09-25T04:43:39.076Z,96.56
2018-09-25T04:46:12.710Z,97.10
2018-09-25T04:48:46.234Z,97.00
2018-09-25T04:51:19.722Z,97.46
2018-09-25T04:53:53.357Z,97.27
2018-09-25T04:56:26.949Z,97.20
2018-09-25T04:59:00.485Z,97.21
2018-09-25T05:01:34.282Z,96.78
2018-09-25T05:04:08.164Z,97.07
2018-09-25T05:06:41.891Z,96.75
2018-09-25T05:09:15.654Z,96.54
2018-09-25T05:11:49.374Z,96.56
2018-09-25T05:14:24.334Z,97.19
2018-09-25T05:16:58.006Z,96.89
2018-09-25T05:19:31.879Z,96.94
2018-09-25T05:22:05.630Z,96.40
2018-09-25T05:24:39.569Z,97.35
2018-09-25T05:27:13.291Z,96.76
2018-09-25T05:29:47.048Z,97.58
2018-09-25T05:32:20.958Z,97.57
2018-09-25T05:34:54.600Z,96.82
2018-09-25T05:37:28.308Z,97.65
2018-09-25T05:40:01.986Z,96.97
2018-09-25T05:42:35.774Z,96.62
2018-09-25T05:45:09.505Z,97.08
2018-09-25T05:47:43.303Z,96.98
2018-09-25T05:50:17.356Z,97.32
2018-09-25T05:52:52.186Z,96.14
2018-09-25T05:55:27.088Z,96.86
2018-09-25T05:58:01.696Z,96.25
2018-09-25T06:00:36.159Z,96.34
2018-09-25T06:03:11.763Z,96.82
2018-09-25T06:05:46.284Z,97.02
2018-09-25T06:08:19.875Z,96.56
2018-09-25T06:10:53.375Z,96.93
2018-09-25T06:13:27.326Z,96.57
2018-09-25T06:16:01.227Z,96.49
2018-09-25T06:18:35.120Z,95.79
2018-09-25T06:21:08.628Z,95.93
2018-09-25T06:23:42.170Z,96.05
2018-09-25T06:26:15.947Z,95.48
2018-09-25T06:28:49.908Z,95.49
2018-09-25T06:31:23.621Z,95.70
2018-09-25T06:33:57.752Z,94.96
2018-09-25T06:36:31.871Z,95.34
2018-09-25T06:39:05.571Z,95.01
2018-09-25T06:41:39.512Z,94.98
2018-09-25T06:44:13.201Z,94.67
2018-09-25T06:46:46.994Z,94.89
2018-09-25T06:49:20.752Z,95.25
2018-09-25T06:51:54.422Z,94.80
2018-09-25T06:54:28.195Z,94.70
2018-09-25T06:57:01.946Z,94.43
2018-09-25T06:59:35.695Z,94.19
2018-09-25T07:02:09.380Z,93.63
2018-09-25T07:04:43.314Z,93.05
2018-09-25T07:07:17.113Z,92.81
2018-09-25T07:09:51.086Z,92.84
2018-09-25T07:12:24.748Z,93.31
2018-09-25T07:14:58.513Z,93.74
2018-09-25T07:17:32.615Z,92.94
2018-09-25T07:20:06.186Z,92.41
2018-09-25T07:22:40.100Z,92.20
2018-09-25T07:25:13.822Z,91.36
2018-09-25T07:27:47.703Z,91.68
2018-09-25T07:30:21.421Z,92.08
2018-09-25T07:32:55.178Z,92.21
2018-09-25T07:35:29.260Z,91.44
2018-09-25T07:38:03.078Z,91.34
2018-09-25T07:40:38.199Z,91.10
2018-09-25T07:43:11.961Z,90.75
2018-09-25T07:45:45.571Z,91.60
2018-09-25T07:48:19.399Z,91.16
2018-09-25T07:50:53.139Z,91.43
2018-09-25T07:53:27.087Z,90.05
2018-09-25T07:56:00.911Z,90.85
2018-09-25T07:58:34.723Z,90.68
2018-09-25T08:01:08.409Z,90.21
2018-09-25T08:03:42.385Z,90.24
2018-09-25T08:06:16.015Z,89.20
2018-09-25T08:08:49.719Z,89.34
2018-09-25T08:11:23.504Z,88.68
2018-09-25T08:13:57.375Z,88.95
2018-09-25T08:16:31.287Z,88.48
2018-09-25T08:19:05.049Z,87.82
2018-09-25T08:21:38.735Z,88.27
2018-09-25T08:24:12.529Z,88.60
2018-09-25T08:26:46.320Z,88.19
2018-09-25T08:29:19.997Z,86.31
2018-09-25T08:31:53.630Z,86.35
2018-09-25T08:34:27.573Z,84.69
2018-09-25T08:37:01.210Z,84.74
2018-09-25T08:39:35.082Z,86.19
2018-09-25T08:42:08.877Z,85.58
2018-09-25T08:44:42.589Z,84.19
2018-09-25T08:47:16.413Z,84.12
2018-09-25T08:49:51.719Z,82.73
2018-09-25T08:52:25.312Z,83.26
2018-09-25T08:54:59.002Z,84.00
2018-09-25T08:57:32.924Z,83.29
2018-09-25T09:00:06.811Z,80.83
2018-09-25T09:02:40.555Z,80.07
2018-09-25T09:05:14.253Z,80.22
2018-09-25T09:07:48.014Z,80.89
2018-09-25T09:10:21.712Z,81.24
2018-09-25T09:12:55.843Z,80.24
2018-09-25T09:15:30.278Z,80.75
2018-09-25T09:18:04.033Z,80.18
2018-09-25T09:20:38.186Z,79.88
2018-09-25T09:23:12.207Z,79.74
2018-09-25T09:25:46.420Z,79.33
2018-09-25T09:28:20.297Z,79.35
2018-09-25T09:30:54.455Z,79.16
2018-09-25T09:33:28.517Z,78.83
2018-09-25T09:36:02.226Z,79.31
2018-09-25T09:38:36.010Z,78.11
2018-09-25T09:41:09.891Z,76.92
2018-09-25T09:43:43.884Z,76.68
2018-09-25T09:46:17.502Z,76.04
2018-09-25T09:48:50.994Z,76.29
2018-09-25T09:51:24.829Z,73.96
2018-09-25T09:53:58.511Z,74.18
2018-09-25T09:56:32.839Z,75.40
2018-09-25T09:59:07.090Z,75.81
2018-09-25T10:01:40.779Z,74.69
2018-09-25T10:04:14.633Z,73.57
2018-09-25T10:06:48.669Z,74.77
2018-09-25T10:09:22.383Z,76.04
2018-09-25T10:11:56.516Z,75.58
2018-09-25T10:14:30.174Z,73.85
2018-09-25T10:17:03.795Z,73.44
2018-09-25T10:19:37.521Z,73.46
2018-09-25T10:22:11.164Z,73.70
2018-09-25T10:24:44.704Z,74.09
2018-09-25T10:27:22.295Z,74.71
2018-09-25T10:29:56.038Z,74.44
2018-09-25T10:32:30.384Z,73.39
2018-09-25T10:35:04.376Z,74.19
2018-09-25T10:37:37.937Z,71.90
2018-09-25T10:40:12.004Z,71.67
2018-09-25T10:42:45.755Z,69.40
2018-09-25T10:45:19.533Z,69.71
2018-09-25T10:47:53.304Z,67.97
2018-09-25T10:50:27.141Z,70.80
2018-09-25T10:53:01.038Z,68.73
2018-09-25T10:55:34.862Z,70.30
2018-09-25T10:58:08.650Z,69.15
2018-09-25T11:00:42.510Z,67.21
2018-09-25T11:03:16.476Z,67.87
2018-09-25T11:05:50.097Z,65.08
2018-09-25T11:08:23.934Z,66.12
2018-09-25T11:10:57.736Z,65.92
2018-09-25T11:13:31.335Z,62.46
2018-09-25T11:16:05.526Z,61.48
2018-09-25T11:18:39.260Z,61.45
2018-09-25T11:21:13.021Z,61.41
2018-09-25T11:23:46.727Z,61.48
2018-09-25T11:29:02.919Z,65.16
2018-09-25T11:31:36.705Z,66.26
2018-09-25T11:34:10.532Z,62.71
2018-09-25T11:36:44.104Z,64.20
2018-09-25T11:39:17.730Z,64.16
2018-09-25T11:41:51.418Z,61.21
2018-09-25T11:44:24.982Z,63.07
2018-09-25T11:46:58.684Z,63.87
2018-09-25T11:49:32.303Z,60.82
2018-09-25T11:52:06.183Z,61.64
2018-09-25T11:54:40.132Z,59.23
2018-09-25T11:57:14.022Z,59.20
2018-09-25T11:59:47.850Z,59.49
2018-09-25T12:02:21.670Z,61.44
2018-09-25T12:04:55.849Z,60.66
2018-09-25T12:07:29.814Z,59.88
2018-09-25T12:10:03.617Z,56.38
2018-09-25T12:12:37.653Z,59.02
2018-09-25T12:15:11.623Z,56.25
2018-09-25T12:17:45.435Z,55.26
2018-09-25T12:20:19.222Z,58.48
2018-09-25T12:22:53.223Z,58.43
2018-09-25T12:25:26.792Z,57.13
2018-09-25T12:28:00.663Z,56.71
2018-09-25T12:30:34.641Z,55.42
2018-09-25T12:33:08.569Z,57.90
2018-09-25T12:35:42.198Z,56.93
2018-09-25T12:38:15.946Z,57.67
2018-09-25T12:40:49.711Z,58.45
2018-09-25T12:43:23.464Z,59.80
2018-09-25T12:45:57.284Z,59.20
2018-09-25T12:48:31.412Z,59.49
2018-09-25T12:51:05.541Z,58.09
2018-09-25T12:53:39.034Z,59.48
2018-09-25T12:56:12.978Z,56.98
2018-09-25T12:58:46.784Z,56.12
2018-09-25T13:01:20.680Z,57.15
2018-09-25T13:03:54.309Z,56.73
2018-09-25T13:06:28.577Z,52.62
2018-09-25T13:09:02.410Z,54.88
2018-09-25T13:11:36.182Z,55.48
2018-09-25T13:14:10.127Z,54.59
2018-09-25T13:16:44.119Z,55.16
2018-09-25T13:19:17.832Z,55.75
2018-09-25T13:21:51.669Z,57.26
2018-09-25T13:24:25.798Z,57.95
2018-09-25T13:26:59.587Z,56.50
2018-09-25T13:29:33.200Z,55.90
2018-09-25T13:32:06.899Z,57.51
2018-09-25T13:34:40.440Z,54.72
2018-09-25T13:37:14.167Z,57.80
2018-09-25T13:39:48.038Z,57.92
2018-09-25T13:42:21.504Z,57.90
2018-09-25T13:44:55.066Z,56.28
2018-09-25T13:47:28.950Z,56.71
2018-09-25T13:50:02.651Z,57.95
2018-09-25T13:52:36.496Z,57.85
2018-09-25T13:55:10.325Z,58.02
2018-09-25T13:57:44.099Z,57.71
2018-09-25T14:00:17.718Z,57.64
2018-09-25T14:02:51.514Z,58.77
2018-09-25T14:05:25.446Z,59.03
2018-09-25T14:07:59.112Z,57.01
2018-09-25T14:10:32.964Z,58.60
2018-09-25T14:13:06.825Z,57.42
2018-09-25T14:15:40.591Z,57.62
2018-09-25T14:18:14.711Z,59.52
2018-09-25T14:20:48.620Z,61.42
2018-09-25T14:23:22.765Z,61.91
2018-09-25T14:25:56.694Z,61.43
2018-09-25T14:28:30.623Z,61.63
2018-09-25T14:31:04.506Z,61.62
2018-09-25T14:33:38.340Z,60.00
2018-09-25T14:36:12.295Z,61.15
2018-09-25T14:38:47.152Z,60.35
2018-09-25T14:41:20.870Z,61.56
2018-09-25T14:43:54.878Z,58.17
2018-09-25T14:46:28.837Z,56.96
2018-09-25T14:49:02.767Z,55.64
2018-09-25T14:51:36.934Z,58.22
2018-09-25T14:54:10.779Z,59.68
2018-09-25T14:56:44.495Z,60.18
2018-09-25T14:59:18.544Z,58.57
2018-09-25T15:01:52.336Z,58.75
2018-09-25T15:04:25.940Z,58.74
2018-09-25T15:06:59.935Z,57.62
2018-09-25T15:09:33.555Z,58.31
2018-09-25T15:12:07.370Z,59.03
2018-09-25T15:14:41.065Z,58.50
2018-09-25T15:17:14.985Z,58.67
2018-09-25T15:19:48.868Z,58.43
2018-09-25T15:22:22.737Z,58.95
2018-09-25T15:24:57.842Z,59.00
2018-09-25T15:27:31.723Z,58.29
2018-09-25T15:30:05.365Z,58.20
2018-09-25T15:32:39.479Z,57.95
2018-09-25T15:35:13.379Z,58.59
2018-09-25T15:37:46.958Z,59.88
2018-09-25T15:40:20.955Z,60.61
2018-09-25T15:42:54.719Z,62.05
2018-09-25T15:45:28.686Z,63.24
2018-09-25T15:48:02.397Z,62.95
2018-09-25T15:50:36.158Z,62.94
2018-09-25T15:53:09.758Z,63.66
2018-09-25T15:55:43.780Z,65.88
2018-09-25T15:58:17.451Z,67.49
2018-09-25T16:00:51.260Z,67.38
2018-09-25T16:03:24.874Z,66.92
2018-09-25T16:05:58.665Z,66.39
2018-09-25T16:08:32.778Z,66.23
2018-09-25T16:11:06.472Z,66.28
2018-09-25T16:13:39.926Z,68.74
2018-09-25T16:16:13.805Z,69.04
2018-09-25T16:18:47.978Z,69.55
2018-09-25T16:21:21.624Z,69.59
2018-09-25T16:23:55.164Z,70.84
2018-09-25T16:26:28.888Z,71.45
2018-09-25T16:29:02.770Z,70.37
2018-09-25T16:31:36.299Z,69.67
2018-09-25T16:34:09.734Z,69.56
2018-09-25T16:36:43.665Z,70.14
2018-09-25T16:39:17.582Z,68.50
2018-09-25T16:42:15.953Z,69.56
2018-09-25T16:45:10.829Z,70.14
2018-09-25T16:47:44.880Z,71.02
2018-09-25T16:50:20.092Z,71.30
2018-09-25T16:52:53.761Z,71.71
2018-09-25T16:55:48.571Z,72.56
2018-09-25T16:58:22.129Z,73.18
2018-09-25T17:00:55.727Z,74.18
2018-09-25T17:08:38.946Z,75.96
2018-09-25T17:11:12.429Z,75.92
2018-09-25T17:13:45.962Z,76.57
2018-09-25T17:16:19.804Z,77.77
2018-09-25T17:18:53.538Z,79.28
2018-09-25T17:21:27.086Z,79.83
2018-09-25T17:24:00.682Z,80.81
2018-09-25T17:26:34.275Z,81.87
2018-09-25T17:29:08.085Z,82.29
2018-09-25T17:31:41.730Z,81.15
2018-09-25T17:34:15.286Z,81.97
2018-09-25T17:36:48.864Z,81.94
2018-09-25T17:39:22.496Z,81.46
2018-09-25T17:41:56.093Z,82.29
2018-09-25T17:44:29.830Z,83.13
2018-09-25T17:47:03.388Z,83.57
2018-09-25T17:49:36.889Z,83.46
2018-09-25T17:52:10.579Z,83.92
2018-09-25T17:54:44.191Z,84.92
2018-09-25T17:57:18.047Z,84.64
2018-09-25T17:59:51.620Z,84.40
2018-09-25T18:02:25.289Z,84.40
2018-09-25T18:04:58.883Z,85.12
2018-09-25T18:10:06.634Z,85.41
2018-09-25T18:12:40.900Z,85.05
2018-09-25T18:15:14.496Z,85.39
2018-09-25T18:17:48.146Z,85.67
2018-09-25T18:20:21.749Z,85.37
2018-09-25T18:22:55.354Z,85.55
2018-09-25T18:25:29.205Z,85.90
2018-09-25T18:28:03.043Z,86.27
2018-09-25T18:30:36.905Z,86.85
2018-09-25T18:33:10.612Z,86.47
2018-09-25T18:35:44.186Z,86.69
2018-09-25T18:38:17.943Z,87.67
2018-09-25T18:40:51.510Z,87.14
2018-09-25T18:43:25.279Z,87.10
2018-09-25T18:45:58.731Z,87.81
2018-09-25T18:48:32.443Z,88.02
2018-09-25T18:51:06.044Z,87.51
2018-09-25T18:53:39.738Z,87.93
2018-09-25T18:56:13.546Z,87.88
2018-09-25T18:58:47.188Z,87.99
2018-09-25T19:01:21.059Z,87.71
2018-09-25T19:03:54.806Z,87.29
2018-09-25T19:06:28.291Z,88.00
2018-09-25T19:09:01.772Z,87.36
2018-09-25T19:11:35.322Z,88.18
2018-09-25T19:14:09.005Z,87.54
2018-09-25T19:16:42.662Z,87.44
2018-09-25T19:19:16.360Z,87.84
2018-09-25T19:21:49.993Z,87.94
2018-09-25T19:24:23.669Z,88.06
2018-09-25T19:26:57.322Z,87.67
2018-09-25T19:29:31.114Z,88.22
2018-09-25T19:32:04.937Z,88.30
2018-09-25T19:34:38.454Z,88.49
2018-09-25T19:37:12.184Z,88.57
2018-09-25T19:39:45.807Z,89.20
2018-09-25T19:42:19.368Z,88.58
2018-09-25T19:44:53.024Z,88.73
2018-09-25T19:47:26.475Z,88.83
2018-09-25T19:50:00.187Z,89.31
2018-09-25T19:52:34.021Z,89.16
2018-09-25T19:55:07.629Z,88.79
2018-09-25T19:57:41.374Z,88.68
2018-09-25T20:00:14.950Z,89.02
2018-09-25T20:02:49.118Z,89.07
2018-09-25T20:05:23.103Z,89.62
2018-09-25T20:07:56.961Z,89.26
2018-09-25T20:10:30.863Z,88.71
2018-09-25T20:13:04.834Z,88.46
2018-09-25T20:15:38.688Z,89.54
2018-09-25T20:18:12.426Z,88.98
2018-09-25T20:20:46.208Z,88.70
2018-09-25T20:23:19.965Z,88.67
2018-09-25T20:25:53.739Z,89.09
2018-09-25T20:28:27.496Z,89.35
2018-09-25T20:31:01.141Z,89.24
2018-09-25T20:33:34.851Z,89.47
2018-09-25T20:36:08.425Z,89.23
2018-09-25T20:38:42.295Z,88.63
2018-09-25T20:41:16.009Z,88.48
2018-09-25T20:43:49.614Z,89.58
2018-09-25T20:46:23.425Z,88.59
2018-09-25T20:48:57.047Z,89.77
2018-09-25T20:51:30.642Z,89.03
2018-09-25T20:54:04.497Z,89.62
2018-09-25T20:56:38.266Z,89.00
2018-09-25T20:59:11.859Z,89.59
2018-09-25T21:01:45.434Z,89.29
2018-09-25T21:04:19.200Z,90.07
2018-09-25T21:06:52.787Z,90.15
2018-09-25T21:09:26.643Z,89.14
2018-09-25T21:12:00.197Z,89.98
2018-09-25T21:14:33.928Z,89.97
2018-09-25T21:17:07.565Z,89.11
2018-09-25T21:19:41.312Z,90.14
2018-09-25T21:22:15.042Z,88.72
2018-09-25T21:24:48.776Z,88.46
2018-09-25T21:27:22.445Z,89.20
2018-09-25T21:29:56.054Z,90.35
2018-09-25T21:32:29.540Z,90.23
2018-09-25T21:35:03.182Z,90.24
2018-09-25T21:37:36.709Z,89.49
2018-09-25T21:40:10.472Z,89.75
2018-09-25T21:42:44.142Z,89.56
2018-09-25T21:45:17.755Z,89.35
2018-09-25T21:47:51.499Z,88.91
2018-09-25T21:50:25.276Z,89.18
2018-09-25T21:52:58.811Z,89.18
2018-09-25T21:55:32.314Z,90.80
2018-09-25T21:58:06.067Z,91.51
2018-09-25T22:00:39.798Z,91.05
2018-09-25T22:03:13.312Z,91.14
2018-09-25T22:05:47.118Z,90.72
2018-09-25T22:08:20.885Z,90.60
2018-09-25T22:10:54.700Z,91.19
2018-09-25T22:13:28.392Z,90.24
2018-09-25T22:16:02.190Z,89.94
2018-09-25T22:18:35.839Z,90.07
2018-09-25T22:21:09.509Z,90.14
2018-09-25T22:23:43.105Z,89.75
2018-09-25T22:26:16.703Z,89.89
2018-09-25T22:28:50.346Z,89.33
2018-09-25T22:31:24.058Z,90.65
2018-09-25T22:33:57.694Z,89.85
2018-09-25T22:36:31.432Z,90.39
2018-09-25T22:39:05.171Z,90.34
2018-09-25T22:41:38.906Z,91.30
2018-09-25T22:44:12.558Z,91.17
2018-09-25T22:46:46.454Z,90.05
2018-09-25T22:49:20.239Z,90.31
2018-09-25T22:51:53.920Z,91.21
2018-09-25T22:54:27.563Z,91.01
2018-09-25T22:57:01.374Z,90.65
2018-09-25T22:59:35.069Z,91.11
2018-09-25T23:02:08.682Z,89.63
2018-09-25T23:04:42.333Z,90.53
2018-09-25T23:07:16.184Z,90.77
2018-09-25T23:09:49.945Z,89.99
2018-09-25T23:12:23.775Z,90.69
2018-09-25T23:14:57.402Z,90.49
2018-09-25T23:17:31.153Z,89.94
2018-09-25T23:20:04.892Z,91.35
2018-09-25T23:22:38.664Z,92.01
2018-09-25T23:25:12.342Z,90.34
2018-09-25T23:27:46.187Z,90.60
2018-09-25T23:30:19.929Z,90.99
2018-09-25T23:32:53.591Z,90.98
2018-09-25T23:35:27.433Z,91.69
2018-09-25T23:38:01.103Z,91.43
2018-09-25T23:40:34.778Z,92.51
2018-09-25T23:43:07.373Z,90.98
2018-09-25T23:45:40.973Z,91.02
2018-09-25T23:48:18.701Z,90.15
2018-09-25T23:50:54.768Z,90.85
2018-09-25T23:53:32.341Z,90.11
2018-09-25T23:56:06.019Z,90.62
2018-09-25T23:58:36.512Z,91.45
